Time;durP1;ratioP1;P1;durP2;ratioP2;P2;SDS_P1;SDS_P2;PMS_P1;PMS_P2;Temp;Humidity;BMP_temperature;BMP_pressure;BME280_temperature;BME280_humidity;BME280_pressure;Samples;Min_cycle;Max_cycle;Signal;HPM_P1;HPM_P2
2023/07/22 00:02:20;;;;;;;3.17;2.88;;;;;;;30.56;43.74;101230.13;5036068;28;20478;-85
2023/07/22 00:04:46;;;;;;;3.53;3.22;;;;;;;30.64;43.68;101236.25;5053833;28;20024;-86
2023/07/22 00:07:11;;;;;;;3.45;3.00;;;;;;;30.49;43.51;101216.84;5026591;28;20479;-86
2023/07/22 00:09:38;;;;;;;2.80;2.60;;;;;;;30.59;43.62;101242.69;5035667;28;20036;-86
2023/07/22 00:12:04;;;;;;;3.10;2.80;;;;;;;30.55;43.54;101231.06;5053717;28;20021;-85
2023/07/22 00:14:30;;;;;;;3.40;3.10;;;;;;;30.75;43.43;101267.50;5054082;28;20070;-88
2023/07/22 00:16:56;;;;;;;3.50;3.20;;;;;;;30.74;43.68;101273.81;5053950;28;20506;-85
2023/07/22 00:19:23;;;;;;;3.30;3.00;;;;;;;30.58;43.52;101252.56;5035996;28;20413;-85
2023/07/22 00:21:49;;;;;;;3.22;2.92;;;;;;;30.55;43.54;101255.34;5036215;28;20025;-89
2023/07/22 00:24:14;;;;;;;3.20;3.00;;;;;;;30.47;43.87;101251.03;5052388;28;20120;-86
2023/07/22 00:26:42;;;;;;;2.95;2.67;;;;;;;30.48;43.98;101266.25;5053655;28;20025;-86
2023/07/22 00:29:08;;;;;;;3.40;3.10;;;;;;;30.50;43.95;101281.50;5022858;28;20044;-86
2023/07/22 00:31:33;;;;;;;3.15;2.80;;;;;;;30.14;44.02;101202.25;5035999;28;20025;-86
2023/07/22 00:33:59;;;;;;;3.28;2.97;;;;;;;30.49;43.66;101255.47;5053989;28;20094;-86
2023/07/22 00:36:25;;;;;;;4.25;3.40;;;;;;;30.41;43.75;101233.16;5032855;28;20570;-87
2023/07/22 00:38:52;;;;;;;3.45;3.15;;;;;;;30.32;43.87;101222.59;5033689;28;20103;-86
2023/07/22 00:41:18;;;;;;;3.45;3.08;;;;;;;30.55;43.89;101259.84;5030791;28;20037;-87
2023/07/22 00:43:44;;;;;;;3.35;2.97;;;;;;;30.19;43.88;101187.78;5031816;28;20110;-86
2023/07/22 00:46:10;;;;;;;3.45;3.05;;;;;;;30.56;43.90;101257.09;5031563;28;20479;-86
2023/07/22 00:48:35;;;;;;;2.97;2.72;;;;;;;30.43;43.65;101210.66;5031977;28;20124;-86
2023/07/22 00:51:01;;;;;;;3.10;2.90;;;;;;;30.18;43.70;101177.03;5033224;28;20026;-86
2023/07/22 00:53:26;;;;;;;3.25;2.95;;;;;;;30.59;43.88;101245.38;5031904;28;20021;-86
2023/07/22 00:55:52;;;;;;;3.00;2.80;;;;;;;30.70;43.58;101237.94;5031980;28;20029;-86
2023/07/22 00:58:18;;;;;;;3.72;2.97;;;;;;;30.53;43.67;101197.00;5014095;28;20128;-86
2023/07/22 01:00:43;;;;;;;3.65;3.30;;;;;;;30.64;43.44;101194.94;5033062;28;20417;-85
2023/07/22 01:03:09;;;;;;;3.53;3.10;;;;;;;30.33;43.73;101157.91;5031733;28;20049;-84
2023/07/22 01:05:36;;;;;;;3.97;3.58;;;;;;;30.52;43.79;101204.16;5032205;28;20037;-86
2023/07/22 01:08:02;;;;;;;3.63;3.30;;;;;;;30.49;43.83;101198.84;5033810;28;20021;-85
2023/07/22 01:10:28;;;;;;;3.50;3.20;;;;;;;30.55;43.81;101220.28;5034831;28;20079;-85
2023/07/22 01:12:55;;;;;;;3.60;3.30;;;;;;;30.46;43.90;101207.03;5037485;28;20025;-86
2023/07/22 01:15:22;;;;;;;3.55;3.20;;;;;;;30.44;43.94;101209.75;5038036;28;20049;-85
2023/07/22 01:17:48;;;;;;;3.80;3.50;;;;;;;30.56;43.69;101215.78;5021174;28;20057;-86
2023/07/22 01:20:15;;;;;;;3.50;3.20;;;;;;;30.51;43.79;101209.63;5033682;28;20040;-86
2023/07/22 01:22:42;;;;;;;3.85;3.30;;;;;;;30.60;43.52;101204.00;5030565;28;20025;-86
2023/07/22 01:25:08;;;;;;;3.25;2.95;;;;;;;30.43;43.84;101193.59;5025482;28;20168;-86
2023/07/22 01:27:33;;;;;;;3.80;3.33;;;;;;;30.23;43.92;101156.28;5032577;28;20052;-85
2023/07/22 01:29:59;;;;;;;3.30;3.00;;;;;;;30.48;43.70;101197.09;5032275;28;20115;-85
2023/07/22 01:32:25;;;;;;;3.50;3.20;;;;;;;30.41;43.69;101185.53;5031407;28;20511;-85
2023/07/22 01:34:51;;;;;;;3.08;2.78;;;;;;;30.43;43.80;101180.13;5038148;28;20048;-86
2023/07/22 01:37:17;;;;;;;4.07;3.20;;;;;;;30.43;43.86;101191.78;5052353;28;20025;-85
2023/07/22 01:39:43;;;;;;;3.75;3.30;;;;;;;30.45;43.72;101191.75;5052287;28;20041;-85
2023/07/22 01:42:08;;;;;;;3.45;3.15;;;;;;;30.45;43.73;101186.38;5050925;28;20660;-85
2023/07/22 01:44:34;;;;;;;3.40;3.10;;;;;;;30.30;43.75;101162.47;5052469;28;20037;-84
2023/07/22 01:47:02;;;;;;;3.60;3.08;;;;;;;30.42;43.83;101189.16;5052291;28;20025;-84
2023/07/22 01:49:28;;;;;;;3.45;3.15;;;;;;;30.35;43.76;101188.38;5034733;28;20021;-85
2023/07/22 01:51:54;;;;;;;3.20;2.88;;;;;;;30.38;43.77;101182.03;5052042;28;20036;-85
2023/07/22 01:54:19;;;;;;;4.03;3.50;;;;;;;30.52;43.75;101193.38;5052157;28;20028;-85
2023/07/22 01:56:45;;;;;;;3.83;3.20;;;;;;;30.58;43.25;101190.56;5051744;28;20456;-85
2023/07/22 01:59:30;;;;;;;3.40;3.10;;;;;;;30.48;43.71;101188.09;5050782;28;20482;-85
2023/07/22 02:01:55;;;;;;;3.22;2.92;;;;;;;30.33;44.33;101186.63;5028181;28;20099;-85
2023/07/22 02:04:21;;;;;;;3.53;2.97;;;;;;;30.17;44.39;101168.06;5031438;28;20022;-85
2023/07/22 02:06:46;;;;;;;3.17;2.90;;;;;;;30.16;44.89;101179.78;5051856;28;20405;-84
2023/07/22 02:09:13;;;;;;;3.90;3.50;;;;;;;30.21;45.17;101201.22;5051920;28;20032;-83
2023/07/22 02:11:39;;;;;;;3.72;3.22;;;;;;;30.19;45.55;101205.75;5051508;28;20045;-84
2023/07/22 02:14:06;;;;;;;3.67;3.38;;;;;;;30.17;45.66;101203.09;5051595;28;20037;-84
2023/07/22 02:16:36;;;;;;;3.90;3.30;;;;;;;30.07;46.04;101196.09;5050031;28;20029;-85
2023/07/22 02:19:03;;;;;;;3.92;3.53;;;;;;;30.08;46.14;101195.22;5030457;28;20102;-85
2023/07/22 02:21:29;;;;;;;3.72;3.40;;;;;;;30.00;46.16;101183.69;5030390;28;20481;-85
2023/07/22 02:23:55;;;;;;;3.58;3.28;;;;;;;29.94;46.44;101186.50;5031350;28;20103;-85
2023/07/22 02:26:21;;;;;;;3.63;3.25;;;;;;;29.97;46.36;101192.72;5033960;28;20052;-85
2023/07/22 02:28:46;;;;;;;3.58;3.28;;;;;;;29.82;46.66;101166.09;5051231;28;20021;-85
2023/07/22 02:31:12;;;;;;;3.65;3.35;;;;;;;29.92;46.70;101189.22;5049995;28;20186;-83
2023/07/22 02:33:38;;;;;;;4.03;3.60;;;;;;;29.94;46.94;101192.78;5033629;28;20036;-85
2023/07/22 02:36:04;;;;;;;4.78;3.70;;;;;;;29.88;46.99;101186.63;5013436;28;20057;-86
2023/07/22 02:38:29;;;;;;;3.78;3.47;;;;;;;29.88;47.23;101192.00;5030070;28;20041;-85
2023/07/22 02:41:01;;;;;;;3.70;3.30;;;;;;;29.89;47.26;101199.16;5029451;28;20037;-86
2023/07/22 02:43:27;;;;;;;4.10;3.70;;;;;;;29.80;47.35;101179.59;5020066;28;20667;-85
2023/07/22 02:45:53;;;;;;;4.78;3.95;;;;;;;29.88;47.36;101195.59;5027827;28;20025;-85
2023/07/22 02:48:19;;;;;;;4.03;3.63;;;;;;;29.85;47.49;101192.09;5030645;28;20040;-85
2023/07/22 02:50:45;;;;;;;4.25;3.85;;;;;;;29.80;47.68;101179.59;5016558;28;20411;-85
2023/07/22 02:53:11;;;;;;;4.97;3.80;;;;;;;29.77;47.56;101163.47;5030219;28;20033;-87
2023/07/22 02:55:37;;;;;;;6.13;3.50;;;;;;;29.83;47.71;101179.53;5030027;28;20025;-85
2023/07/22 02:58:02;;;;;;;4.40;3.95;;;;;;;29.82;47.63;101187.63;5029237;28;20066;-88
2023/07/22 03:00:28;;;;;;;4.97;3.97;;;;;;;29.58;47.79;101165.59;5030987;28;20032;-84
2023/07/22 03:03:01;;;;;;;4.55;4.15;;;;;;;29.77;47.93;101201.19;5031535;28;20037;-85
2023/07/22 03:05:28;;;;;;;4.00;3.63;;;;;;;29.57;48.30;101169.22;5030037;28;20018;-86
2023/07/22 03:07:53;;;;;;;4.18;3.72;;;;;;;29.75;48.00;101200.31;5030275;28;20040;-86
2023/07/22 03:10:19;;;;;;;4.40;3.75;;;;;;;29.64;48.25;101192.41;5031113;28;20029;-86
2023/07/22 03:12:45;;;;;;;5.70;4.55;;;;;;;29.71;48.22;101201.28;5030192;28;20503;-84
2023/07/22 03:15:12;;;;;;;4.78;4.28;;;;;;;29.51;48.45;101168.47;5032962;28;20513;-87
2023/07/22 03:17:39;;;;;;;4.60;4.15;;;;;;;29.44;48.85;101175.72;5039392;28;20030;-84
2023/07/22 03:20:16;;;;;;;4.68;4.25;;;;;;;29.70;48.81;101222.84;5045256;28;20036;-87
2023/07/22 03:22:41;;;;;;;4.60;4.18;;;;;;;29.69;48.95;101227.31;5049315;28;20085;-87
2023/07/22 03:25:11;;;;;;;4.60;4.10;;;;;;;29.65;49.14;101228.28;5051003;28;20060;-85
2023/07/22 03:27:37;;;;;;;4.97;4.43;;;;;;;29.52;49.00;101205.19;5036746;28;20080;-85
2023/07/22 03:30:07;;;;;;;5.03;4.03;;;;;;;29.66;49.06;101235.47;5036810;28;20087;-87
2023/07/22 03:32:33;;;;;;;4.32;3.85;;;;;;;29.45;49.20;101196.34;5036741;28;20064;-86
2023/07/22 03:35:00;;;;;;;4.90;4.18;;;;;;;29.62;49.23;101209.50;5040617;28;20117;-85
2023/07/22 03:37:25;;;;;;;4.70;4.20;;;;;;;29.38;49.21;101162.38;5055444;28;20025;-86
2023/07/22 03:39:51;;;;;;;5.32;4.68;;;;;;;29.61;49.24;101210.41;5036689;28;20489;-86
2023/07/22 03:42:16;;;;;;;5.22;4.38;;;;;;;29.47;49.43;101199.91;5055106;28;20108;-86
2023/07/22 03:44:42;;;;;;;5.10;4.60;;;;;;;29.59;49.80;101236.47;5020731;28;20040;-85
2023/07/22 03:47:08;;;;;;;6.82;4.68;;;;;;;29.43;49.94;101223.28;5055257;28;20104;-85
2023/07/22 03:49:33;;;;;;;5.03;4.43;;;;;;;29.41;50.19;101225.09;5055280;28;20083;-85
2023/07/22 03:51:59;;;;;;;5.75;4.55;;;;;;;29.50;50.55;101244.69;5037507;28;20025;-86
2023/07/22 03:54:25;;;;;;;5.65;4.75;;;;;;;29.55;50.50;101248.19;5056765;28;20051;-86
2023/07/22 03:56:51;;;;;;;5.32;4.65;;;;;;;29.29;50.39;101211.84;5023175;28;20024;-85
2023/07/22 03:59:16;;;;;;;5.15;4.53;;;;;;;29.41;50.39;101226.91;5055459;28;20036;-86
2023/07/22 04:01:43;;;;;;;5.35;4.70;;;;;;;29.41;50.49;101232.28;5036458;28;20126;-85
2023/07/22 04:04:09;;;;;;;5.53;4.65;;;;;;;29.33;50.33;101218.97;5036390;28;20079;-85
2023/07/22 04:06:34;;;;;;;4.97;4.45;;;;;;;29.27;50.59;101218.19;5036267;28;20575;-85
2023/07/22 04:09:00;;;;;;;5.82;4.85;;;;;;;29.52;50.37;101262.59;5037080;28;20055;-85
2023/07/22 04:11:27;;;;;;;6.63;4.70;;;;;;;29.36;50.57;101235.06;5053915;28;20989;-85
2023/07/22 04:13:53;;;;;;;5.88;4.75;;;;;;;29.49;50.80;101246.50;5054524;28;20036;-84
2023/07/22 04:16:19;;;;;;;6.80;5.30;;;;;;;29.32;51.19;101217.19;5053919;28;20021;-85
2023/07/22 04:18:44;;;;;;;5.93;5.30;;;;;;;29.32;50.84;101210.94;5035869;28;20039;-85
2023/07/22 04:21:10;;;;;;;5.97;5.13;;;;;;;29.47;51.28;101234.88;5053058;28;20402;-85
2023/07/22 04:23:37;;;;;;;5.90;4.97;;;;;;;29.46;51.04;101233.09;5050592;28;20395;-86
2023/07/22 04:26:07;;;;;;;6.22;5.18;;;;;;;29.34;51.11;101215.38;5052772;28;20025;-85
2023/07/22 04:28:48;;;;;;;5.88;4.93;;;;;;;29.43;51.14;101233.16;5048745;28;20025;-86
2023/07/22 04:31:18;;;;;;;5.95;4.88;;;;;;;29.23;50.72;101190.44;5017800;28;20032;-86
2023/07/22 04:33:44;;;;;;;5.15;4.65;;;;;;;29.43;50.61;101214.31;5025008;28;20029;-85
2023/07/22 04:36:10;;;;;;;6.45;5.30;;;;;;;29.42;51.47;101216.13;5025588;28;20116;-86
2023/07/22 04:38:36;;;;;;;5.97;5.07;;;;;;;29.33;51.08;101199.25;5031094;28;20112;-85
2023/07/22 04:41:03;;;;;;;5.90;4.75;;;;;;;29.41;51.17;101225.09;5032529;28;20546;-85
2023/07/22 04:43:29;;;;;;;6.07;4.68;;;;;;;29.38;51.15;101232.31;5031341;28;20033;-86
2023/07/22 04:45:55;;;;;;;6.22;5.10;;;;;;;29.42;51.35;101242.13;5031283;28;20102;-87
2023/07/22 04:48:24;;;;;;;7.15;5.00;;;;;;;29.39;51.49;101240.38;5014879;28;20032;-84
2023/07/22 04:50:50;;;;;;;5.38;4.80;;;;;;;29.31;52.03;101218.09;5031549;28;20556;-86
2023/07/22 04:53:17;;;;;;;7.38;5.60;;;;;;;29.39;51.69;101229.63;5004927;28;20025;-85
2023/07/22 04:55:43;;;;;;;6.88;5.32;;;;;;;29.02;51.89;101156.69;5032149;28;20082;-87
2023/07/22 04:58:10;;;;;;;6.80;5.45;;;;;;;29.22;51.58;101202.13;5033245;28;20103;-86
2023/07/22 05:00:37;;;;;;;6.70;4.97;;;;;;;29.24;51.56;101202.97;5031978;28;20112;-87
2023/07/22 05:03:11;;;;;;;5.28;4.38;;;;;;;29.37;51.14;101231.44;5032870;28;20108;-87
2023/07/22 05:05:38;;;;;;;5.95;5.15;;;;;;;29.05;51.12;101174.59;5032167;28;20025;-87
2023/07/22 05:08:04;;;;;;;5.68;5.07;;;;;;;29.10;51.47;101188.88;5033093;28;20029;-86
2023/07/22 05:10:36;;;;;;;5.30;4.80;;;;;;;29.07;51.85;101188.91;5001462;28;20120;-85
2023/07/22 05:13:01;;;;;;;5.72;5.10;;;;;;;29.19;52.12;101207.56;5032370;28;20578;-84
2023/07/22 05:15:27;;;;;;;5.30;4.80;;;;;;;29.24;52.47;101229.88;5033537;28;20089;-84
2023/07/22 05:17:52;;;;;;;5.43;4.93;;;;;;;29.20;51.54;101218.28;5032398;28;20608;-84
2023/07/22 05:20:18;;;;;;;5.30;4.80;;;;;;;29.25;51.90;101211.94;5033176;28;20017;-84
2023/07/22 05:22:44;;;;;;;5.90;5.30;;;;;;;29.22;52.84;101213.75;5031864;28;20510;-84
2023/07/22 05:25:10;;;;;;;5.90;4.47;;;;;;;29.29;52.06;101229.81;5033172;28;20057;-85
2023/07/22 05:27:36;;;;;;;7.10;5.43;;;;;;;29.30;51.32;101229.78;5033847;28;20029;-84
2023/07/22 05:30:02;;;;;;;5.88;4.97;;;;;;;29.22;52.42;101219.13;5032069;28;20025;-83
2023/07/22 05:32:29;;;;;;;5.60;4.90;;;;;;;29.11;52.13;101201.41;5031973;28;20035;-84
2023/07/22 05:34:56;;;;;;;6.25;4.70;;;;;;;29.21;52.23;101230.81;5034897;28;20025;-84
2023/07/22 05:37:22;;;;;;;6.00;4.70;;;;;;;29.27;52.89;101242.38;5022036;28;20482;-84
2023/07/22 05:39:48;;;;;;;5.13;4.63;;;;;;;29.28;51.76;101250.44;5052514;28;20559;-84
2023/07/22 05:42:14;;;;;;;6.57;5.25;;;;;;;28.99;51.51;101189.00;5031833;28;20025;-83
2023/07/22 05:44:39;;;;;;;5.15;4.60;;;;;;;29.20;51.34;101226.34;5036071;28;20025;-84
2023/07/22 05:47:37;;;;;;;4.95;4.50;;;;;;;29.28;51.34;101247.75;5047269;28;20609;-86
2023/07/22 05:50:03;;;;;;;5.18;4.68;;;;;;;29.25;50.92;101236.16;5032080;28;20425;-85
2023/07/22 05:52:34;;;;;;;5.40;4.78;;;;;;;28.96;51.22;101183.69;5051639;28;20390;-85
2023/07/22 05:55:07;;;;;;;5.75;5.15;;;;;;;29.08;50.67;101214.84;5034616;28;20052;-84
2023/07/22 05:57:33;;;;;;;5.60;4.93;;;;;;;28.88;50.81;101169.47;5057386;28;20055;-86
2023/07/22 06:00:15;;;;;;;5.20;4.70;;;;;;;28.99;51.08;101183.63;5038296;28;20029;-85
2023/07/22 06:02:40;;;;;;;5.90;4.90;;;;;;;29.11;51.10;101210.38;5035055;28;20060;-84
2023/07/22 06:05:06;;;;;;;6.53;5.18;;;;;;;29.23;51.19;101242.44;5018343;28;20509;-85
2023/07/22 06:07:32;;;;;;;5.43;4.88;;;;;;;29.05;50.95;101201.47;5034711;28;20029;-85
2023/07/22 06:09:58;;;;;;;5.10;4.60;;;;;;;28.89;51.23;101172.13;5050499;28;20449;-85
2023/07/22 06:12:23;;;;;;;5.07;4.57;;;;;;;29.13;51.00;101221.97;5031366;28;20022;-85
2023/07/22 06:14:50;;;;;;;5.85;4.82;;;;;;;29.06;51.00;101220.25;5052063;28;20108;-84
2023/07/22 06:17:15;;;;;;;5.18;4.57;;;;;;;29.08;50.92;101209.47;5033780;28;20033;-84
2023/07/22 06:19:41;;;;;;;6.40;5.32;;;;;;;29.23;50.83;101228.09;5051716;28;20024;-84
2023/07/22 06:22:06;;;;;;;5.68;4.68;;;;;;;29.24;50.86;101224.50;5050729;28;20041;-83
2023/07/22 06:24:32;;;;;;;6.68;5.00;;;;;;;29.17;51.19;101215.66;5049940;28;20027;-83
2023/07/22 06:26:57;;;;;;;7.40;5.00;;;;;;;29.19;50.86;101219.19;5051158;28;20029;-84
2023/07/22 06:29:23;;;;;;;6.13;5.13;;;;;;;29.20;51.03;101220.97;5033186;28;20025;-84
2023/07/22 06:31:49;;;;;;;6.20;5.00;;;;;;;29.23;50.95;101233.47;5051124;28;20083;-85
2023/07/22 06:34:14;;;;;;;6.10;4.82;;;;;;;28.96;50.82;101195.31;5051144;28;20024;-84
2023/07/22 06:36:40;;;;;;;5.32;4.82;;;;;;;29.13;50.69;101219.28;5051419;28;20418;-84
2023/07/22 06:39:06;;;;;;;5.45;4.90;;;;;;;29.19;50.96;101232.66;5049369;28;20500;-84
2023/07/22 06:41:31;;;;;;;5.40;4.90;;;;;;;29.06;51.06;101209.50;5051018;28;20025;-83
2023/07/22 06:43:57;;;;;;;5.05;4.55;;;;;;;29.04;50.88;101200.56;5053900;28;20029;-86
2023/07/22 06:46:22;;;;;;;5.25;4.72;;;;;;;28.75;50.98;101149.97;5052627;28;20431;-83
2023/07/22 06:48:48;;;;;;;5.68;5.07;;;;;;;29.09;51.18;101209.47;5032432;28;20486;-83
2023/07/22 06:51:22;;;;;;;6.72;5.25;;;;;;;28.74;50.89;101140.97;5050798;28;20556;-83
2023/07/22 06:53:48;;;;;;;5.20;4.70;;;;;;;28.81;50.80;101148.06;5050985;28;20115;-83
2023/07/22 06:56:13;;;;;;;5.55;4.95;;;;;;;29.21;50.91;101209.31;5049265;28;20116;-83
2023/07/22 06:58:39;;;;;;;5.30;4.80;;;;;;;29.22;51.05;101208.38;5050601;28;20024;-84
2023/07/22 07:01:05;;;;;;;5.95;4.97;;;;;;;29.11;50.94;101199.59;5033050;28;20032;-83
2023/07/22 07:03:30;;;;;;;5.75;5.25;;;;;;;29.03;51.32;101185.34;5057138;28;20398;-85
2023/07/22 07:05:57;;;;;;;6.38;5.32;;;;;;;29.26;50.97;101219.09;5064382;28;20032;-86
2023/07/22 07:08:25;;;;;;;5.43;4.93;;;;;;;29.21;51.17;101222.75;5044684;28;20086;-85
2023/07/22 07:10:52;;;;;;;5.85;5.28;;;;;;;29.18;51.24;101216.53;5066863;28;20025;-88
2023/07/22 07:13:18;;;;;;;6.18;5.20;;;;;;;29.27;51.13;101229.81;5047121;28;20052;-86
2023/07/22 07:15:50;;;;;;;5.82;5.22;;;;;;;29.25;51.17;101233.44;5035151;28;20743;-86
2023/07/22 07:18:17;;;;;;;6.25;5.65;;;;;;;29.25;51.29;101226.25;5039706;28;20029;-85
2023/07/22 07:20:44;;;;;;;6.43;5.82;;;;;;;29.15;51.23;101216.59;5039420;28;20080;-85
2023/07/22 07:23:19;;;;;;;6.57;5.40;;;;;;;29.28;51.45;101238.81;5041271;28;20025;-85
2023/07/22 07:25:44;;;;;;;6.65;5.47;;;;;;;29.22;51.27;101231.72;5058476;28;20021;-85
2023/07/22 07:28:11;;;;;;;6.05;5.38;;;;;;;29.22;51.61;101229.03;5030170;28;20624;-84
2023/07/22 07:30:41;;;;;;;6.45;5.55;;;;;;;29.22;51.46;101232.59;5050955;28;20418;-85
2023/07/22 07:33:06;;;;;;;5.80;5.20;;;;;;;29.29;51.83;101238.75;5060665;28;20482;-83
2023/07/22 07:35:33;;;;;;;6.43;5.32;;;;;;;29.28;51.62;101239.69;5032856;28;20050;-84
2023/07/22 07:37:58;;;;;;;5.97;5.38;;;;;;;29.31;51.87;101230.66;5037636;28;20040;-84
2023/07/22 07:40:26;;;;;;;6.10;5.50;;;;;;;29.29;51.40;101227.13;5036743;28;20030;-84
2023/07/22 07:42:52;;;;;;;6.88;5.53;;;;;;;29.18;51.78;101224.59;5030733;28;20401;-83
2023/07/22 07:45:17;;;;;;;6.90;5.68;;;;;;;29.11;51.59;101204.09;5029872;28;20561;-83
2023/07/22 07:47:43;;;;;;;6.60;5.90;;;;;;;29.10;51.88;101202.31;5013612;28;20025;-84
2023/07/22 07:50:09;;;;;;;5.45;4.95;;;;;;;29.08;51.80;101198.72;5030852;28;20487;-84
2023/07/22 07:52:34;;;;;;;5.88;5.25;;;;;;;29.18;51.89;101214.72;5029969;28;20052;-84
2023/07/22 07:55:03;;;;;;;6.78;5.32;;;;;;;29.23;51.93;101223.63;5029856;28;20025;-84
2023/07/22 07:57:37;;;;;;;5.90;5.30;;;;;;;29.17;51.86;101210.28;5013720;28;20025;-84
2023/07/22 08:00:03;;;;;;;9.68;5.80;;;;;;;28.86;51.87;101164.09;5028415;28;20108;-84
2023/07/22 08:02:28;;;;;;;5.75;5.25;;;;;;;29.29;51.82;101243.25;5032064;28;20068;-85
2023/07/22 08:04:54;;;;;;;6.03;5.35;;;;;;;29.31;51.69;101238.75;5030346;28;20025;-84
2023/07/22 08:07:20;;;;;;;6.95;5.63;;;;;;;29.11;51.87;101207.66;5029593;28;20042;-83
2023/07/22 08:09:49;;;;;;;5.80;5.30;;;;;;;28.79;51.80;101170.50;5030298;28;20467;-84
2023/07/22 08:12:15;;;;;;;6.82;5.30;;;;;;;29.17;51.89;101222.84;5015030;28;20030;-84
2023/07/22 08:14:41;;;;;;;5.90;5.40;;;;;;;29.21;52.11;101232.59;5027999;28;20033;-84
2023/07/22 08:17:07;;;;;;;5.95;5.45;;;;;;;29.27;51.78;101228.94;5034578;28;20473;-84
2023/07/22 08:19:33;;;;;;;6.18;5.57;;;;;;;29.30;51.85;101237.84;5021183;28;20021;-83
2023/07/22 08:21:58;;;;;;;5.60;5.05;;;;;;;29.26;52.15;101224.50;5032736;28;20490;-83
2023/07/22 08:24:24;;;;;;;7.07;5.55;;;;;;;29.31;51.84;101227.97;5034010;28;20033;-84
2023/07/22 08:26:49;;;;;;;6.07;5.47;;;;;;;28.96;52.15;101164.88;5033706;28;20494;-83
2023/07/22 08:29:15;;;;;;;6.05;5.45;;;;;;;29.31;51.96;101226.16;5033032;28;20039;-84
2023/07/22 08:31:41;;;;;;;6.95;5.57;;;;;;;29.26;52.07;101221.78;5033010;28;20022;-84
2023/07/22 08:34:06;;;;;;;6.97;5.78;;;;;;;29.32;52.07;101216.31;5034019;28;20040;-83
2023/07/22 08:36:32;;;;;;;5.85;5.30;;;;;;;29.16;52.08;101194.16;5046887;28;20087;-84
2023/07/22 08:38:57;;;;;;;6.68;5.57;;;;;;;29.17;52.50;101196.81;5052655;28;20536;-83
2023/07/22 08:41:25;;;;;;;5.93;5.32;;;;;;;29.32;52.45;101214.50;5053180;28;20564;-83
2023/07/22 08:43:54;;;;;;;6.10;5.50;;;;;;;29.32;52.37;101222.59;5035991;28;20060;-87
2023/07/22 08:46:20;;;;;;;5.80;5.20;;;;;;;29.15;52.36;101192.38;5023047;28;20108;-87
2023/07/22 08:48:53;;;;;;;5.88;5.35;;;;;;;29.29;52.69;101210.97;5014443;28;20064;-83
2023/07/22 08:51:19;;;;;;;6.45;5.85;;;;;;;29.21;52.31;101195.84;5047036;28;20021;-83
2023/07/22 08:53:46;;;;;;;6.30;5.70;;;;;;;29.31;52.65;101209.16;5054030;28;20581;-83
2023/07/22 08:56:12;;;;;;;6.72;5.82;;;;;;;29.35;52.36;101208.19;5036079;28;20490;-84
2023/07/22 08:58:38;;;;;;;6.03;5.40;;;;;;;29.31;52.51;101198.38;5053996;28;20036;-85
2023/07/22 09:01:05;;;;;;;6.00;5.40;;;;;;;29.34;52.40;101201.03;5053603;28;20032;-85
2023/07/22 09:03:32;;;;;;;6.45;5.85;;;;;;;29.31;52.70;101193.00;5052134;28;20069;-86
2023/07/22 09:05:58;;;;;;;6.03;5.50;;;;;;;29.30;52.68;101200.19;5053382;28;20122;-84
2023/07/22 09:08:24;;;;;;;6.68;5.60;;;;;;;29.35;52.41;101200.09;5035944;28;20081;-84
2023/07/22 09:10:49;;;;;;;6.78;5.38;;;;;;;29.26;52.56;101193.09;5053224;28;20114;-84
2023/07/22 09:13:15;;;;;;;6.28;5.68;;;;;;;29.28;52.69;101188.56;5035887;28;20033;-85
2023/07/22 09:15:42;;;;;;;6.25;5.65;;;;;;;29.30;52.82;101184.06;5035324;28;20551;-85
2023/07/22 09:18:08;;;;;;;6.47;5.85;;;;;;;29.26;52.44;101178.75;5030770;28;20638;-84
2023/07/22 09:20:34;;;;;;;6.57;5.88;;;;;;;29.27;52.50;101173.31;5053150;28;20477;-85
2023/07/22 09:23:00;;;;;;;5.70;5.18;;;;;;;29.26;52.40;101168.00;5053382;28;20501;-84
2023/07/22 09:25:28;;;;;;;5.93;5.35;;;;;;;29.39;52.78;101191.94;5035656;28;20025;-84
2023/07/22 09:28:00;;;;;;;6.30;5.70;;;;;;;29.41;52.64;101191.94;5035645;28;20078;-85
2023/07/22 09:30:28;;;;;;;7.45;5.63;;;;;;;29.41;52.76;101191.94;5053285;28;20443;-84
2023/07/22 09:32:56;;;;;;;6.97;5.53;;;;;;;29.43;52.67;101187.41;5053457;28;20025;-85
2023/07/22 09:35:22;;;;;;;6.00;5.43;;;;;;;29.42;52.75;101186.53;5052748;28;20049;-84
2023/07/22 09:37:48;;;;;;;6.00;5.40;;;;;;;29.36;52.48;101169.63;5034074;28;20024;-85
2023/07/22 09:40:16;;;;;;;6.07;5.47;;;;;;;29.42;52.67;101173.09;5033684;28;20040;-85
2023/07/22 09:42:53;;;;;;;5.88;5.38;;;;;;;29.43;52.84;101174.84;5035564;28;20106;-84
2023/07/22 09:45:20;;;;;;;6.38;5.80;;;;;;;29.41;52.65;101170.41;5053131;28;20081;-84
2023/07/22 09:47:47;;;;;;;6.25;5.65;;;;;;;29.37;52.80;101163.31;5035454;28;20037;-83
2023/07/22 09:50:18;;;;;;;6.70;6.00;;;;;;;29.48;52.63;101176.56;5018469;28;20379;-84
2023/07/22 09:52:48;;;;;;;6.97;5.72;;;;;;;29.47;52.61;101174.81;5054078;28;20049;-83
2023/07/22 09:55:16;;;;;;;5.78;5.28;;;;;;;29.48;52.83;101174.75;5052580;28;20036;-84
2023/07/22 09:57:45;;;;;;;6.95;5.60;;;;;;;29.47;52.60;101164.91;5053515;28;20025;-84
2023/07/22 10:00:11;;;;;;;5.80;5.20;;;;;;;29.48;52.47;101164.00;5039663;28;20035;-84
2023/07/22 10:02:41;;;;;;;6.00;5.50;;;;;;;29.37;52.81;101145.34;5037396;28;20036;-84
2023/07/22 10:05:10;;;;;;;6.28;5.68;;;;;;;29.38;52.76;101138.16;5052587;28;20036;-86
2023/07/22 10:07:38;;;;;;;6.90;5.68;;;;;;;29.22;52.74;101113.34;5052622;28;20480;-84
2023/07/22 10:10:04;;;;;;;6.22;5.63;;;;;;;29.52;52.68;101157.63;5045570;28;20478;-84
2023/07/22 10:12:29;;;;;;;5.47;4.97;;;;;;;29.43;52.67;101137.16;5046731;28;20091;-84
2023/07/22 10:14:56;;;;;;;6.43;5.82;;;;;;;29.23;52.55;101099.88;5043666;28;20033;-88
2023/07/22 10:17:21;;;;;;;6.80;6.13;;;;;;;29.23;52.95;101088.22;5033394;28;20028;-84
2023/07/22 10:19:50;;;;;;;5.63;5.13;;;;;;;29.41;52.98;101112.09;5032835;28;20118;-84
2023/07/22 10:22:15;;;;;;;6.00;5.40;;;;;;;29.32;52.79;101084.50;5031221;28;20028;-85
2023/07/22 10:24:41;;;;;;;6.50;5.65;;;;;;;29.43;52.51;101094.13;5043491;28;20037;-86
2023/07/22 10:27:09;;;;;;;6.22;5.63;;;;;;;29.26;52.69;101044.25;5014492;28;20052;-84
2023/07/22 10:29:35;;;;;;;5.47;4.97;;;;;;;29.36;52.62;101060.19;5029919;28;20029;-84
2023/07/22 10:32:01;;;;;;;5.90;5.30;;;;;;;29.44;52.76;101084.22;5030881;28;20116;-85
2023/07/22 10:34:32;;;;;;;6.03;5.43;;;;;;;29.56;53.09;101119.00;5032543;28;20469;-87
2023/07/22 10:36:59;;;;;;;8.23;5.90;;;;;;;29.42;56.56;101089.66;5024683;28;20097;-85
2023/07/22 10:39:28;;;;;;;7.60;6.30;;;;;;;29.47;55.30;101112.91;5030830;28;20037;-84
2023/07/22 10:42:06;;;;;;;8.20;5.93;;;;;;;29.52;54.74;101111.00;5026677;28;20030;-85
2023/07/22 10:44:37;;;;;;;8.68;6.13;;;;;;;29.66;57.18;101137.69;5030711;28;20529;-85
2023/07/22 10:47:04;;;;;;;6.63;5.70;;;;;;;29.60;56.38;101134.16;5030442;28;20403;-83
2023/07/22 10:49:49;;;;;;;9.02;6.03;;;;;;;29.63;55.01;101147.59;5030673;28;20021;-84
2023/07/22 10:52:40;;;;;;;7.53;5.90;;;;;;;29.66;54.86;101140.38;5029762;28;20134;-84
2023/07/22 10:55:14;;;;;;;10.70;6.20;;;;;;;29.52;54.88;101111.88;5029181;28;20483;-83
2023/07/22 10:57:55;;;;;;;6.60;5.75;;;;;;;29.59;54.45;101129.72;5028799;28;20018;-84
2023/07/22 11:00:21;;;;;;;7.93;5.75;;;;;;;29.67;54.52;101134.94;5030997;28;20075;-84
2023/07/22 11:03:13;;;;;;;7.22;6.15;;;;;;;29.67;54.40;101134.94;5029320;28;20029;-84
2023/07/22 11:05:52;;;;;;;6.72;5.75;;;;;;;29.69;54.24;101124.13;5029661;28;20145;-83
2023/07/22 11:08:36;;;;;;;6.82;5.65;;;;;;;29.68;54.02;101115.19;5019408;28;20033;-84
2023/07/22 11:11:03;;;;;;;6.68;5.80;;;;;;;29.56;54.21;101084.00;5030599;28;20024;-84
2023/07/22 11:13:29;;;;;;;8.20;6.00;;;;;;;29.70;54.44;101115.16;5030038;28;20022;-84
2023/07/22 11:15:59;;;;;;;6.95;6.18;;;;;;;29.50;54.11;101081.44;5031390;28;20029;-84
2023/07/22 11:18:44;;;;;;;9.23;6.00;;;;;;;29.65;54.00;101115.22;5031322;28;20021;-85
2023/07/22 11:21:11;;;;;;;6.75;5.60;;;;;;;29.60;53.88;101106.38;5032349;28;20033;-84
2023/07/22 11:23:37;;;;;;;6.32;5.40;;;;;;;29.72;53.85;101125.00;4998277;28;20040;-84
2023/07/22 11:26:03;;;;;;;6.18;5.57;;;;;;;29.39;53.99;101061.94;5013480;28;20415;-85